createdAt,value
2018-10-01T00:00:09.484Z,8.96
2018-10-01T00:01:09.435Z,8.95
2018-10-01T00:02:09.374Z,8.93
2018-10-01T00:03:09.332Z,8.87
2018-10-01T00:04:09.303Z,8.82
2018-10-01T00:05:09.230Z,8.78
2018-10-01T00:06:09.175Z,8.81
2018-10-01T00:07:09.125Z,8.70
2018-10-01T00:08:09.070Z,8.80
2018-10-01T00:09:09.045Z,8.78
2018-10-01T00:10:08.963Z,8.81
2018-10-01T00:11:08.923Z,8.82
2018-10-01T00:12:08.868Z,8.77
2018-10-01T00:13:08.804Z,8.80
2018-10-01T00:14:08.783Z,8.80
2018-10-01T00:15:08.727Z,8.73
2018-10-01T00:16:08.652Z,8.84
2018-10-01T00:17:08.605Z,8.77
2018-10-01T00:18:08.573Z,8.80
2018-10-01T00:19:08.521Z,8.84
2018-10-01T00:20:08.453Z,8.80
2018-10-01T00:21:08.398Z,8.84
2018-10-01T00:22:08.341Z,8.87
2018-10-01T00:23:08.295Z,8.90
2018-10-01T00:24:08.265Z,8.85
2018-10-01T00:25:08.182Z,8.88
2018-10-01T00:26:08.131Z,8.90
2018-10-01T00:27:08.081Z,8.91
2018-10-01T00:28:08.034Z,8.91
2018-10-01T00:29:08.003Z,8.95
2018-10-01T00:30:07.921Z,8.91
2018-10-01T00:31:07.878Z,8.99
2018-10-01T00:32:07.820Z,9.02
2018-10-01T00:33:07.771Z,9.00
2018-10-01T00:34:07.757Z,8.99
2018-10-01T00:35:07.671Z,8.98
2018-10-01T00:36:07.609Z,9.02
2018-10-01T00:37:07.559Z,8.99
2018-10-01T00:38:07.511Z,8.98
2018-10-01T00:39:07.484Z,8.96
2018-10-01T00:40:07.405Z,9.05
2018-10-01T00:41:07.352Z,9.10
2018-10-01T00:42:07.302Z,9.08
2018-10-01T00:43:07.278Z,9.14
2018-10-01T00:44:07.218Z,9.00
2018-10-01T00:45:07.150Z,9.06
2018-10-01T00:46:07.105Z,9.02
2018-10-01T00:47:07.042Z,9.14
2018-10-01T00:48:06.986Z,9.10
2018-10-01T00:49:06.958Z,9.14
2018-10-01T00:50:06.888Z,9.11
2018-10-01T00:51:06.829Z,9.15
2018-10-01T00:52:06.796Z,9.15
2018-10-01T00:53:06.732Z,9.14
2018-10-01T00:54:06.698Z,9.15
2018-10-01T00:55:06.632Z,9.11
2018-10-01T00:56:06.571Z,9.15
2018-10-01T00:57:06.523Z,9.15
2018-10-01T00:58:06.473Z,9.11
2018-10-01T00:59:06.454Z,9.22
2018-10-01T01:00:06.372Z,9.18
2018-10-01T01:01:06.323Z,9.21
2018-10-01T01:02:06.266Z,9.19
2018-10-01T01:03:06.222Z,9.21
2018-10-01T01:04:06.182Z,9.24
2018-10-01T01:05:06.135Z,9.16
2018-10-01T01:06:06.064Z,9.21
2018-10-01T01:07:06.007Z,9.18
2018-10-01T01:08:05.952Z,9.21
2018-10-01T01:09:05.912Z,9.25
2018-10-01T01:10:05.875Z,9.19
2018-10-01T01:11:05.791Z,9.11
2018-10-01T01:12:05.740Z,9.15
2018-10-01T01:13:05.691Z,9.19
2018-10-01T01:14:05.666Z,9.14
2018-10-01T01:15:05.623Z,9.21
2018-10-01T01:16:05.545Z,9.10
2018-10-01T01:17:05.489Z,9.18
2018-10-01T01:18:05.440Z,9.21
2018-10-01T01:19:05.384Z,9.18
2018-10-01T01:20:05.357Z,9.22
2018-10-01T01:21:05.278Z,9.14
2018-10-01T01:22:05.233Z,9.18
2018-10-01T01:23:05.177Z,9.19
2018-10-01T01:24:05.130Z,9.18
2018-10-01T01:25:05.095Z,9.15
2018-10-01T01:26:05.025Z,9.19
2018-10-01T01:27:04.961Z,9.21
2018-10-01T01:28:04.917Z,9.18
2018-10-01T01:29:04.870Z,9.32
2018-10-01T01:30:04.838Z,9.15
2018-10-01T01:31:04.771Z,9.18
2018-10-01T01:32:04.712Z,9.28
2018-10-01T01:33:04.660Z,9.15
2018-10-01T01:34:04.608Z,9.26
2018-10-01T01:35:04.592Z,9.18
2018-10-01T01:36:04.504Z,9.16
2018-10-01T01:37:04.456Z,9.24
2018-10-01T01:38:04.399Z,9.21
2018-10-01T01:39:04.342Z,9.19
2018-10-01T01:40:04.332Z,9.19
2018-10-01T01:41:04.243Z,9.19
2018-10-01T01:42:04.190Z,9.15
2018-10-01T01:43:04.146Z,9.15
2018-10-01T01:44:04.099Z,9.11
2018-10-01T01:45:04.063Z,9.21
2018-10-01T01:46:03.986Z,9.21
2018-10-01T01:47:03.937Z,9.24
2018-10-01T01:48:03.878Z,9.16
2018-10-01T01:49:03.845Z,9.24
2018-10-01T01:50:03.804Z,9.15
2018-10-01T01:51:03.731Z,9.15
2018-10-01T01:52:03.677Z,9.22
2018-10-01T01:53:03.649Z,9.29
2018-10-01T01:54:03.572Z,9.29
2018-10-01T01:55:03.557Z,9.33
2018-10-01T01:56:03.472Z,9.29
2018-10-01T01:57:03.424Z,9.33
2018-10-01T01:58:03.361Z,9.32
2018-10-01T01:59:03.313Z,9.34
2018-10-01T02:00:03.289Z,9.29
2018-10-01T02:01:03.224Z,9.33
2018-10-01T02:02:03.154Z,9.28
2018-10-01T02:03:03.100Z,9.33
2018-10-01T02:04:03.058Z,9.32
2018-10-01T02:05:03.028Z,9.32
2018-10-01T02:06:02.949Z,9.36
2018-10-01T02:07:02.898Z,9.32
2018-10-01T02:08:02.847Z,9.32
2018-10-01T02:09:02.795Z,9.32
2018-10-01T02:10:02.782Z,9.32
2018-10-01T02:11:02.698Z,9.32
2018-10-01T02:12:02.642Z,9.32
2018-10-01T02:13:02.585Z,9.32
2018-10-01T02:14:02.535Z,9.37
2018-10-01T02:15:02.503Z,9.29
2018-10-01T02:16:02.440Z,9.36
2018-10-01T02:17:02.377Z,9.28
2018-10-01T02:18:02.330Z,9.34
2018-10-01T02:19:02.281Z,9.28
2018-10-01T02:20:02.249Z,9.33
2018-10-01T02:21:02.177Z,9.29
2018-10-01T02:22:02.120Z,9.29
2018-10-01T02:23:02.073Z,9.32
2018-10-01T02:24:02.031Z,9.32
2018-10-01T02:25:02.037Z,9.33
2018-10-01T02:26:01.918Z,9.34
2018-10-01T02:27:01.866Z,9.37
2018-10-01T02:28:01.808Z,9.36
2018-10-01T02:29:01.761Z,9.36
2018-10-01T02:30:01.731Z,9.32
2018-10-01T02:31:01.680Z,9.29
2018-10-01T02:32:01.600Z,9.29
2018-10-01T02:33:01.554Z,9.29
2018-10-01T02:34:01.505Z,9.28
2018-10-01T02:35:01.457Z,9.33
2018-10-01T02:36:01.438Z,9.32
2018-10-01T02:37:01.354Z,9.33
2018-10-01T02:38:01.299Z,9.29
2018-10-01T02:39:01.243Z,9.36
2018-10-01T02:40:01.205Z,9.37
2018-10-01T02:41:01.175Z,9.29
2018-10-01T02:42:01.098Z,9.32
2018-10-01T02:43:01.065Z,9.29
2018-10-01T02:44:00.979Z,9.29
2018-10-01T02:45:00.952Z,9.29
2018-10-01T02:46:00.920Z,9.33
2018-10-01T02:47:00.824Z,9.29
2018-10-01T02:48:00.778Z,9.36
2018-10-01T02:49:00.741Z,9.32
2018-10-01T02:50:00.679Z,9.29
2018-10-01T02:51:00.641Z,9.34
2018-10-01T02:52:00.570Z,9.34
2018-10-01T02:53:00.517Z,9.28
2018-10-01T02:54:00.462Z,9.32
2018-10-01T02:55:00.413Z,9.33
2018-10-01T02:56:00.384Z,9.36
2018-10-01T02:57:00.315Z,9.28
2018-10-01T02:58:00.265Z,9.37
2018-10-01T02:59:00.211Z,9.36
2018-10-01T03:00:00.167Z,9.33
2018-10-01T03:01:00.132Z,9.33
2018-10-01T03:02:00.054Z,9.42
2018-10-01T03:03:00.023Z,9.32
2018-10-01T03:03:59.952Z,9.32
2018-10-01T03:04:59.903Z,9.32
2018-10-01T03:05:59.903Z,9.29
2018-10-01T03:06:59.797Z,9.33
2018-10-01T03:07:59.746Z,9.32
2018-10-01T03:08:59.693Z,9.33
2018-10-01T03:09:59.637Z,9.32
2018-10-01T03:10:59.605Z,9.37
2018-10-01T03:11:59.537Z,9.28
2018-10-01T03:12:59.492Z,9.26
2018-10-01T03:13:59.433Z,9.26
2018-10-01T03:14:59.376Z,9.22
2018-10-01T03:15:59.353Z,9.25
2018-10-01T03:16:59.282Z,9.24
2018-10-01T03:17:59.236Z,9.28
2018-10-01T03:18:59.180Z,9.32
2018-10-01T03:19:59.137Z,9.21
2018-10-01T03:20:59.101Z,9.28
2018-10-01T03:21:59.016Z,9.33
2018-10-01T03:22:58.963Z,9.33
2018-10-01T03:23:58.917Z,9.29
2018-10-01T03:24:58.870Z,9.29
2018-10-01T03:25:58.832Z,9.29
2018-10-01T03:26:58.766Z,9.29
2018-10-01T03:27:58.706Z,9.33
2018-10-01T03:28:58.659Z,9.33
2018-10-01T03:29:58.615Z,9.32
2018-10-01T03:30:58.595Z,9.29
2018-10-01T03:31:58.513Z,9.36
2018-10-01T03:32:58.459Z,9.34
2018-10-01T03:33:58.396Z,9.29
2018-10-01T03:34:58.339Z,9.34
2018-10-01T03:35:58.318Z,9.26
2018-10-01T03:36:58.247Z,9.32
2018-10-01T03:37:58.192Z,9.32
2018-10-01T03:38:58.146Z,9.33
2018-10-01T03:39:58.149Z,9.34
2018-10-01T03:40:58.073Z,9.33
2018-10-01T03:41:58.012Z,9.29
2018-10-01T03:42:57.940Z,9.29
2018-10-01T03:43:57.881Z,9.32
2018-10-01T03:44:57.831Z,9.29
2018-10-01T03:45:57.774Z,9.26
2018-10-01T03:46:57.748Z,9.18
2018-10-01T03:47:57.671Z,9.21
2018-10-01T03:48:57.622Z,9.14
2018-10-01T03:49:57.567Z,9.22
2018-10-01T03:50:57.515Z,9.24
2018-10-01T03:51:57.493Z,9.08
2018-10-01T03:52:57.417Z,9.14
2018-10-01T03:53:57.363Z,9.15
2018-10-01T03:54:57.344Z,9.02
2018-10-01T03:55:57.258Z,9.02
2018-10-01T03:56:57.230Z,9.02
2018-10-01T03:57:57.166Z,9.06
2018-10-01T03:58:57.117Z,9.03
2018-10-01T03:59:57.048Z,8.96
2018-10-01T04:00:57.007Z,8.99
2018-10-01T04:01:56.985Z,8.96
2018-10-01T04:02:56.944Z,8.95
2018-10-01T04:03:56.840Z,8.90
2018-10-01T04:04:56.793Z,8.87
2018-10-01T04:05:56.752Z,8.84
2018-10-01T04:06:56.736Z,8.81
2018-10-01T04:07:56.639Z,8.73
2018-10-01T04:08:56.626Z,8.85
2018-10-01T04:09:56.530Z,8.78
2018-10-01T04:10:56.483Z,8.72
2018-10-01T04:11:56.469Z,8.72
2018-10-01T04:12:56.374Z,8.66
2018-10-01T04:13:56.314Z,8.67
2018-10-01T04:14:56.268Z,8.64
2018-10-01T04:15:56.211Z,8.64
2018-10-01T04:16:56.189Z,8.60
2018-10-01T04:17:56.120Z,8.55
2018-10-01T04:18:56.063Z,8.57
2018-10-01T04:19:56.022Z,8.52
2018-10-01T04:20:55.956Z,8.51
2018-10-01T04:21:55.930Z,8.39
2018-10-01T04:22:55.934Z,8.42
2018-10-01T04:23:55.797Z,8.42
2018-10-01T04:24:55.748Z,8.41
2018-10-01T04:25:55.691Z,8.39
2018-10-01T04:26:55.667Z,8.27
2018-10-01T04:27:55.607Z,8.33
2018-10-01T04:28:55.538Z,8.26
2018-10-01T04:29:55.510Z,8.31
2018-10-01T04:30:55.436Z,8.33
2018-10-01T04:31:55.400Z,8.23
2018-10-01T04:32:55.329Z,8.18
2018-10-01T04:33:55.281Z,8.06
2018-10-01T04:34:55.230Z,8.08
2018-10-01T04:35:55.169Z,8.09
2018-10-01T04:36:55.141Z,8.06
2018-10-01T04:37:55.078Z,8.09
2018-10-01T04:38:55.011Z,7.97
2018-10-01T04:39:54.965Z,7.91
2018-10-01T04:40:54.908Z,7.88
2018-10-01T04:41:54.883Z,7.90
2018-10-01T04:42:54.824Z,7.93
2018-10-01T04:43:54.766Z,7.90
2018-10-01T04:44:54.697Z,7.88
2018-10-01T04:45:54.643Z,7.87
2018-10-01T04:46:54.708Z,7.93
2018-10-01T04:47:54.543Z,7.96
2018-10-01T04:48:54.500Z,7.96
2018-10-01T04:49:54.441Z,7.97
2018-10-01T04:50:54.392Z,7.90
2018-10-01T04:51:54.355Z,7.94
2018-10-01T04:52:54.282Z,7.94
2018-10-01T04:53:54.224Z,8.01
2018-10-01T04:54:54.180Z,7.90
2018-10-01T04:55:54.121Z,7.97
2018-10-01T04:56:54.092Z,7.93
2018-10-01T04:57:54.016Z,7.98
2018-10-01T04:58:53.965Z,8.05
2018-10-01T04:59:53.909Z,7.97
2018-10-01T05:00:53.856Z,7.96
2018-10-01T05:01:53.825Z,8.02
2018-10-01T05:02:53.749Z,8.02
2018-10-01T05:03:53.699Z,8.04
2018-10-01T05:04:53.653Z,8.08
2018-10-01T05:05:53.605Z,8.01
2018-10-01T05:06:53.539Z,7.98
2018-10-01T05:07:53.515Z,8.01
2018-10-01T05:08:53.457Z,8.05
2018-10-01T05:09:53.377Z,8.02
2018-10-01T05:10:53.328Z,7.93
2018-10-01T05:11:53.282Z,7.96
2018-10-01T05:12:53.250Z,7.93
2018-10-01T05:13:53.174Z,7.91
2018-10-01T05:14:53.167Z,7.86
2018-10-01T05:15:53.067Z,7.78
2018-10-01T05:16:53.011Z,7.83
2018-10-01T05:17:52.983Z,7.83
2018-10-01T05:18:52.912Z,7.83
2018-10-01T05:19:52.855Z,7.83
2018-10-01T05:20:52.816Z,7.80
2018-10-01T05:21:52.750Z,7.83
2018-10-01T05:22:52.719Z,7.83
2018-10-01T05:23:52.653Z,7.78
2018-10-01T05:24:52.590Z,7.79
2018-10-01T05:25:52.555Z,7.76
2018-10-01T05:26:52.489Z,7.91
2018-10-01T05:27:52.461Z,7.90
2018-10-01T05:28:53.903Z,7.88
2018-10-01T05:29:52.326Z,7.88
2018-10-01T05:30:52.276Z,7.91
2018-10-01T05:31:52.221Z,7.96
2018-10-01T05:32:52.196Z,7.93
2018-10-01T05:33:52.140Z,7.96
2018-10-01T05:34:52.066Z,7.90
2018-10-01T05:35:52.014Z,7.96
2018-10-01T05:36:51.958Z,7.90
2018-10-01T05:37:52.401Z,7.98
2018-10-01T05:38:51.860Z,8.02
2018-10-01T05:39:51.808Z,7.98
2018-10-01T05:40:51.752Z,8.01
2018-10-01T05:41:51.694Z,8.06
2018-10-01T05:42:51.676Z,8.05
2018-10-01T05:43:51.621Z,8.08
2018-10-01T05:44:51.564Z,7.98
2018-10-01T05:45:51.495Z,8.01
2018-10-01T05:46:51.452Z,8.06
2018-10-01T05:47:51.420Z,8.04
2018-10-01T05:48:51.346Z,8.04
2018-10-01T05:49:51.356Z,7.96
2018-10-01T05:50:51.345Z,7.94
2018-10-01T05:51:51.297Z,7.90
2018-10-01T05:52:51.222Z,7.91
2018-10-01T05:53:51.097Z,7.96
2018-10-01T05:54:51.083Z,7.97
2018-10-01T05:55:50.965Z,7.93
2018-10-01T05:56:51.033Z,7.94
2018-10-01T05:57:51.093Z,7.96
2018-10-01T05:58:50.827Z,7.98
2018-10-01T05:59:50.935Z,8.06
2018-10-01T06:00:50.703Z,8.08
2018-10-01T06:01:50.676Z,8.02
2018-10-01T06:02:50.620Z,8.06
2018-10-01T06:03:50.539Z,8.06
2018-10-01T06:04:50.570Z,8.06
2018-10-01T06:05:50.431Z,8.09
2018-10-01T06:06:50.394Z,8.15
2018-10-01T06:07:50.364Z,8.16
2018-10-01T06:08:50.273Z,8.09
2018-10-01T06:09:50.218Z,8.18
2018-10-01T06:10:50.173Z,8.23
2018-10-01T06:11:50.176Z,8.23
2018-10-01T06:12:50.093Z,8.20
2018-10-01T06:13:50.007Z,8.26
2018-10-01T06:14:49.961Z,8.23
2018-10-01T06:15:49.907Z,8.27
2018-10-01T06:16:49.857Z,8.31
2018-10-01T06:17:49.848Z,8.30
2018-10-01T06:18:49.757Z,8.30
2018-10-01T06:19:49.699Z,8.23
2018-10-01T06:20:49.647Z,8.33
2018-10-01T06:21:49.597Z,8.29
2018-10-01T06:22:49.561Z,8.30
2018-10-01T06:23:49.486Z,8.26
2018-10-01T06:24:49.430Z,8.33
2018-10-01T06:25:49.384Z,8.29
2018-10-01T06:26:49.337Z,8.38
2018-10-01T06:27:49.304Z,8.31
2018-10-01T06:28:49.227Z,8.30
2018-10-01T06:29:49.174Z,8.30
2018-10-01T06:30:49.115Z,8.29
2018-10-01T06:31:49.063Z,8.42
2018-10-01T06:32:49.050Z,8.45
2018-10-01T06:33:48.956Z,8.48
2018-10-01T06:34:48.913Z,8.42
2018-10-01T06:35:48.857Z,8.55
2018-10-01T06:36:48.804Z,8.52
2018-10-01T06:37:48.745Z,8.64
2018-10-01T06:38:48.714Z,8.67
2018-10-01T06:39:48.649Z,8.72
2018-10-01T06:40:48.590Z,8.64
2018-10-01T06:41:48.578Z,8.57
2018-10-01T06:42:48.492Z,8.66
2018-10-01T06:43:48.463Z,8.72
2018-10-01T06:44:48.380Z,8.69
2018-10-01T06:45:48.329Z,8.77
2018-10-01T06:46:48.282Z,8.80
2018-10-01T06:47:48.221Z,8.81
2018-10-01T06:48:48.196Z,8.88
2018-10-01T06:49:48.119Z,8.84
2018-10-01T06:50:48.093Z,8.85
2018-10-01T06:51:48.020Z,8.84
2018-10-01T06:52:47.962Z,8.93
2018-10-01T06:53:47.955Z,8.93
2018-10-01T06:54:47.856Z,8.90
2018-10-01T06:55:47.808Z,8.98
2018-10-01T06:56:47.756Z,8.98
2018-10-01T06:57:47.696Z,9.00
2018-10-01T06:58:47.671Z,8.95
2018-10-01T06:59:47.591Z,8.99
2018-10-01T07:00:47.545Z,9.10
2018-10-01T07:01:47.490Z,9.10
2018-10-01T07:02:47.444Z,9.05
2018-10-01T07:03:47.417Z,9.15
2018-10-01T07:04:47.343Z,9.14
2018-10-01T07:05:47.447Z,9.14
2018-10-01T07:06:47.233Z,9.11
2018-10-01T07:07:47.183Z,9.19
2018-10-01T07:08:47.149Z,9.18
2018-10-01T07:09:47.071Z,9.21
2018-10-01T07:10:47.020Z,9.21
2018-10-01T07:11:47.034Z,9.21
2018-10-01T07:12:46.915Z,9.19
2018-10-01T07:13:46.893Z,9.22
2018-10-01T07:14:46.827Z,9.33
2018-10-01T07:15:46.760Z,9.33
2018-10-01T07:16:46.764Z,9.32
2018-10-01T07:17:46.698Z,9.40
2018-10-01T07:18:46.627Z,9.49
2018-10-01T07:19:46.614Z,9.46
2018-10-01T07:20:46.496Z,9.49
2018-10-01T07:21:46.462Z,9.57
2018-10-01T07:22:46.409Z,9.57
2018-10-01T07:23:46.375Z,9.65
2018-10-01T07:24:46.290Z,9.61
2018-10-01T07:25:46.253Z,9.64
2018-10-01T07:26:46.193Z,9.62
2018-10-01T07:27:46.133Z,9.61
2018-10-01T07:28:46.082Z,9.61
2018-10-01T07:29:46.072Z,9.64
2018-10-01T07:30:46.076Z,9.72
2018-10-01T07:31:45.927Z,9.70
2018-10-01T07:32:45.913Z,9.70
2018-10-01T07:33:45.820Z,9.69
2018-10-01T07:34:45.798Z,9.67
2018-10-01T07:35:45.724Z,9.76
2018-10-01T07:36:45.666Z,9.69
2018-10-01T07:37:45.617Z,9.65
2018-10-01T07:38:45.624Z,9.65
2018-10-01T07:39:45.542Z,9.67
2018-10-01T07:40:45.470Z,9.62
2018-10-01T07:41:45.430Z,9.64
2018-10-01T07:42:45.353Z,9.62
2018-10-01T07:43:45.308Z,9.75
2018-10-01T07:44:45.349Z,9.76
2018-10-01T07:45:45.209Z,9.76
2018-10-01T07:46:45.157Z,9.77
2018-10-01T07:47:45.120Z,9.86
2018-10-01T07:48:45.051Z,9.88
2018-10-01T07:49:45.041Z,9.90
2018-10-01T07:50:44.963Z,9.93
2018-10-01T07:51:44.892Z,9.97
2018-10-01T07:52:44.836Z,10.12
2018-10-01T07:53:44.788Z,10.12
2018-10-01T07:54:44.762Z,10.15
2018-10-01T07:55:44.689Z,10.09
2018-10-01T07:56:44.628Z,10.28
2018-10-01T07:57:44.580Z,10.28
2018-10-01T07:58:44.529Z,10.27
2018-10-01T07:59:44.560Z,10.30
2018-10-01T08:00:44.429Z,10.40
2018-10-01T08:01:44.378Z,10.48
2018-10-01T08:02:44.321Z,10.48
2018-10-01T08:03:44.272Z,10.45
2018-10-01T08:04:44.245Z,10.49
2018-10-01T08:05:44.171Z,10.62
2018-10-01T08:06:44.154Z,10.60
2018-10-01T08:07:44.064Z,10.71
2018-10-01T08:08:44.192Z,10.62
2018-10-01T08:09:43.984Z,10.70
2018-10-01T08:10:43.940Z,10.68
2018-10-01T08:11:43.857Z,10.72
2018-10-01T08:12:43.813Z,10.62
2018-10-01T08:13:43.796Z,10.70
2018-10-01T08:14:43.708Z,10.68
2018-10-01T08:15:43.702Z,10.65
2018-10-01T08:16:43.645Z,10.75
2018-10-01T08:17:43.562Z,10.85
2018-10-01T08:18:43.510Z,10.95
2018-10-01T08:19:43.456Z,11.03
2018-10-01T08:20:43.426Z,11.04
2018-10-01T08:21:43.351Z,11.12
2018-10-01T08:22:43.301Z,11.14
2018-10-01T08:23:43.358Z,11.11
2018-10-01T08:24:43.193Z,11.08
2018-10-01T08:25:43.171Z,11.14
2018-10-01T08:26:43.227Z,11.25
2018-10-01T08:27:43.044Z,11.23
2018-10-01T08:28:42.996Z,11.25
2018-10-01T08:29:43.094Z,11.33
2018-10-01T08:30:42.915Z,11.43
2018-10-01T08:31:42.835Z,11.44
2018-10-01T08:32:42.791Z,11.46
2018-10-01T08:33:42.735Z,11.50
2018-10-01T08:34:42.685Z,11.48
2018-10-01T08:35:42.669Z,11.61
2018-10-01T08:36:42.588Z,11.59
2018-10-01T08:37:42.544Z,11.68
2018-10-01T08:38:42.555Z,11.71
2018-10-01T08:39:42.434Z,11.74
2018-10-01T08:40:42.411Z,11.68
2018-10-01T08:41:42.331Z,11.72
2018-10-01T08:42:42.280Z,11.80
2018-10-01T08:43:42.233Z,11.79
2018-10-01T08:44:42.181Z,11.83
2018-10-01T08:45:42.161Z,11.79
2018-10-01T08:46:42.088Z,11.87
2018-10-01T08:47:42.110Z,11.84
2018-10-01T08:48:41.976Z,11.97
2018-10-01T08:49:41.928Z,11.99
2018-10-01T08:50:41.896Z,12.03
2018-10-01T08:51:41.916Z,12.00
2018-10-01T08:52:41.780Z,11.95
2018-10-01T08:53:41.723Z,12.07
2018-10-01T08:54:41.676Z,12.09
2018-10-01T08:55:41.651Z,12.14
2018-10-01T08:56:41.571Z,12.15
2018-10-01T08:57:41.521Z,12.28
2018-10-01T08:58:41.476Z,12.15
2018-10-01T08:59:41.423Z,12.32
2018-10-01T09:00:41.400Z,12.32
2018-10-01T09:01:41.331Z,12.39
2018-10-01T09:02:41.282Z,12.39
2018-10-01T09:03:41.220Z,12.40
2018-10-01T09:04:41.172Z,12.43
2018-10-01T09:05:41.146Z,12.54
2018-10-01T09:06:41.084Z,12.55
2018-10-01T09:07:41.025Z,12.64
2018-10-01T09:08:40.978Z,12.61
2018-10-01T09:09:40.916Z,12.61
2018-10-01T09:10:40.891Z,12.61
2018-10-01T09:11:40.819Z,12.53
2018-10-01T09:12:40.772Z,12.61
2018-10-01T09:13:40.721Z,12.58
2018-10-01T09:14:40.711Z,12.63
2018-10-01T09:15:40.644Z,12.63
2018-10-01T09:16:40.569Z,12.54
2018-10-01T09:17:40.520Z,12.54
2018-10-01T09:18:40.476Z,12.61
2018-10-01T09:19:40.422Z,12.57
2018-10-01T09:20:40.460Z,12.60
2018-10-01T09:21:40.340Z,12.57
2018-10-01T09:22:40.268Z,12.58
2018-10-01T09:23:40.222Z,12.57
2018-10-01T09:24:40.169Z,12.64
2018-10-01T09:25:40.141Z,12.65
2018-10-01T09:26:40.149Z,12.73
2018-10-01T09:27:40.028Z,12.80
2018-10-01T09:28:39.972Z,12.79
2018-10-01T09:29:39.954Z,12.93
2018-10-01T09:30:39.910Z,12.88
2018-10-01T09:31:39.820Z,12.97
2018-10-01T09:32:39.842Z,13.00
2018-10-01T09:33:39.715Z,12.98
2018-10-01T09:34:39.669Z,13.05
2018-10-01T09:35:39.723Z,12.94
2018-10-01T09:36:39.592Z,13.03
2018-10-01T09:37:39.517Z,13.11
2018-10-01T09:38:39.512Z,13.11
2018-10-01T09:39:39.418Z,13.13
2018-10-01T09:40:39.460Z,13.06
2018-10-01T09:41:39.345Z,13.12
2018-10-01T09:42:39.265Z,13.18
2018-10-01T09:43:39.220Z,13.12
2018-10-01T09:44:39.236Z,13.18
2018-10-01T09:45:39.119Z,13.24
2018-10-01T09:46:39.090Z,13.26
2018-10-01T09:47:39.019Z,13.33
2018-10-01T09:48:38.968Z,13.29
2018-10-01T09:49:38.915Z,13.35
2018-10-01T09:50:38.871Z,13.35
2018-10-01T09:51:38.841Z,13.46
2018-10-01T09:52:38.768Z,13.53
2018-10-01T09:53:38.729Z,13.55
2018-10-01T09:54:38.671Z,13.59
2018-10-01T09:55:38.618Z,13.59
2018-10-01T09:56:38.635Z,13.63
2018-10-01T09:57:38.520Z,13.60
2018-10-01T09:58:38.502Z,13.77
2018-10-01T09:59:38.422Z,13.77
2018-10-01T10:00:38.450Z,13.83
2018-10-01T10:01:38.399Z,13.82
2018-10-01T10:02:38.402Z,13.82
2018-10-01T10:03:38.301Z,13.92
2018-10-01T10:04:38.287Z,13.85
2018-10-01T10:05:38.209Z,13.80
2018-10-01T10:06:38.139Z,13.82
2018-10-01T10:07:38.073Z,13.78
2018-10-01T10:08:38.014Z,13.86
2018-10-01T10:09:37.985Z,13.83
2018-10-01T10:10:37.960Z,13.89
2018-10-01T10:11:37.973Z,13.96
2018-10-01T10:12:37.822Z,14.07
2018-10-01T10:13:37.784Z,14.05
2018-10-01T10:14:37.818Z,13.95
2018-10-01T10:15:37.672Z,14.11
2018-10-01T10:16:37.708Z,13.97
2018-10-01T10:17:37.565Z,14.04
2018-10-01T10:18:37.509Z,13.83
2018-10-01T10:19:37.497Z,13.88
2018-10-01T10:20:37.494Z,13.82
2018-10-01T10:21:37.447Z,13.80
2018-10-01T10:22:37.397Z,13.78
2018-10-01T10:23:37.304Z,13.65
2018-10-01T10:24:37.291Z,13.74
2018-10-01T10:25:37.183Z,13.70
2018-10-01T10:26:37.242Z,13.70
2018-10-01T10:27:37.099Z,13.70
2018-10-01T10:28:37.106Z,13.70
2018-10-01T10:29:36.976Z,13.65
2018-10-01T10:30:36.974Z,13.64
2018-10-01T10:31:36.937Z,13.57
2018-10-01T10:32:36.941Z,13.65
2018-10-01T10:33:36.805Z,13.57
2018-10-01T10:34:36.796Z,13.59
2018-10-01T10:35:36.806Z,13.68
2018-10-01T10:36:36.670Z,13.56
2018-10-01T10:37:36.634Z,13.52
2018-10-01T10:38:36.607Z,13.52
2018-10-01T10:39:36.543Z,13.53
2018-10-01T10:40:36.436Z,13.52
2018-10-01T10:41:36.486Z,13.52
2018-10-01T10:42:36.363Z,13.50
2018-10-01T10:43:36.309Z,13.37
2018-10-01T10:44:36.288Z,13.33
2018-10-01T10:45:36.179Z,13.18
2018-10-01T10:46:36.215Z,13.18
2018-10-01T10:47:36.106Z,13.12
2018-10-01T10:48:36.013Z,13.08
2018-10-01T10:49:35.947Z,13.09
2018-10-01T10:50:35.996Z,13.11
2018-10-01T10:51:35.880Z,12.96
2018-10-01T10:52:35.800Z,13.00
2018-10-01T10:53:35.752Z,12.96
2018-10-01T10:54:35.698Z,13.01
2018-10-01T10:55:35.649Z,13.01
2018-10-01T10:56:35.680Z,13.05
2018-10-01T10:57:35.544Z,13.00
2018-10-01T10:58:35.493Z,12.97
2018-10-01T10:59:35.485Z,12.94
2018-10-01T11:00:35.394Z,12.90
2018-10-01T11:01:35.390Z,12.90
2018-10-01T11:02:35.350Z,12.78
2018-10-01T11:03:35.249Z,12.83
2018-10-01T11:04:35.204Z,12.71
2018-10-01T11:05:35.142Z,12.64
2018-10-01T11:06:35.094Z,12.69
2018-10-01T11:07:35.076Z,12.64
2018-10-01T11:08:35.015Z,12.68
2018-10-01T11:09:34.949Z,12.78
2018-10-01T11:10:34.894Z,12.75
2018-10-01T11:11:34.843Z,12.78
2018-10-01T11:12:34.819Z,12.90
2018-10-01T11:13:34.746Z,12.96
2018-10-01T11:14:34.740Z,13.11
2018-10-01T11:15:34.650Z,13.21
2018-10-01T11:16:34.595Z,13.37
2018-10-01T11:17:34.566Z,13.31
2018-10-01T11:18:34.652Z,13.52
2018-10-01T11:19:34.443Z,13.55
2018-10-01T11:20:34.420Z,13.55
2018-10-01T11:21:34.429Z,13.63
2018-10-01T11:22:34.357Z,13.70
2018-10-01T11:23:34.242Z,13.70
2018-10-01T11:24:34.203Z,13.64
2018-10-01T11:25:34.213Z,13.71
2018-10-01T11:26:34.092Z,13.77
2018-10-01T11:27:34.075Z,13.67
2018-10-01T11:28:33.992Z,13.85
2018-10-01T11:29:33.955Z,13.93
2018-10-01T11:30:33.896Z,13.97
2018-10-01T11:31:33.878Z,14.08
2018-10-01T11:32:33.817Z,14.18
2018-10-01T11:33:33.834Z,14.15
2018-10-01T11:34:33.731Z,14.23
2018-10-01T11:35:33.692Z,14.38
2018-10-01T11:36:33.600Z,14.48
2018-10-01T11:37:33.575Z,14.45
2018-10-01T11:38:33.498Z,14.63
2018-10-01T11:39:33.463Z,14.66
2018-10-01T11:40:33.413Z,14.81
2018-10-01T11:41:33.350Z,14.78
2018-10-01T11:42:33.326Z,14.81
2018-10-01T11:43:33.252Z,14.78
2018-10-01T11:44:33.202Z,14.66
2018-10-01T11:45:36.577Z,14.50
2018-10-01T11:46:34.098Z,13.93
2018-10-01T11:47:33.076Z,13.12
2018-10-01T11:48:33.003Z,12.35
2018-10-01T11:49:32.957Z,11.47
2018-10-01T11:50:32.928Z,10.83
2018-10-01T11:51:32.883Z,10.22
2018-10-01T11:52:32.830Z,9.85
2018-10-01T11:53:32.756Z,9.59
2018-10-01T11:54:32.704Z,9.46
2018-10-01T11:55:32.655Z,9.34
2018-10-01T11:56:32.602Z,9.29
2018-10-01T11:57:32.591Z,9.29
2018-10-01T11:58:32.502Z,9.18
2018-10-01T11:59:32.453Z,9.21
2018-10-01T12:00:32.404Z,9.18
2018-10-01T12:01:32.347Z,9.22
2018-10-01T12:02:32.321Z,9.14
2018-10-01T12:03:32.299Z,9.16
2018-10-01T12:04:32.194Z,9.11
2018-10-01T12:05:32.142Z,9.18
2018-10-01T12:06:32.087Z,9.22
2018-10-01T12:07:32.097Z,9.24
2018-10-01T12:08:31.987Z,9.28
2018-10-01T12:09:32.026Z,9.34
2018-10-01T12:10:31.951Z,9.39
2018-10-01T12:11:31.827Z,9.42
2018-10-01T12:12:31.902Z,9.42
2018-10-01T12:13:31.722Z,9.43
2018-10-01T12:14:31.666Z,9.44
2018-10-01T12:15:31.657Z,9.42
2018-10-01T12:16:31.561Z,9.49
2018-10-01T12:17:31.515Z,9.39
2018-10-01T12:18:31.487Z,9.44
2018-10-01T12:19:31.428Z,9.54
2018-10-01T12:20:31.354Z,9.51
2018-10-01T12:21:31.374Z,9.49
2018-10-01T12:22:31.251Z,9.54
2018-10-01T12:23:31.222Z,9.61
2018-10-01T12:24:31.145Z,9.58
2018-10-01T12:25:31.099Z,9.59
2018-10-01T12:26:31.044Z,9.65
2018-10-01T12:27:31.020Z,9.58
2018-10-01T12:28:30.960Z,9.62
2018-10-01T12:29:30.890Z,9.72
2018-10-01T12:30:30.837Z,9.65
2018-10-01T12:31:30.780Z,9.64
2018-10-01T12:32:30.724Z,9.65
2018-10-01T12:33:30.732Z,9.62
2018-10-01T12:34:30.625Z,9.64
2018-10-01T12:35:30.576Z,9.62
2018-10-01T12:36:30.520Z,9.62
2018-10-01T12:37:30.469Z,9.69
2018-10-01T12:38:30.444Z,9.70
2018-10-01T12:39:30.367Z,9.75
2018-10-01T12:40:30.310Z,9.90
2018-10-01T12:41:30.259Z,10.00
2018-10-01T12:42:30.205Z,10.06
2018-10-01T12:43:30.185Z,10.13
2018-10-01T12:44:30.099Z,10.09
2018-10-01T12:45:30.077Z,10.26
2018-10-01T12:46:30.001Z,10.27
2018-10-01T12:47:29.945Z,10.35
2018-10-01T12:48:29.914Z,10.54
2018-10-01T12:49:29.843Z,10.46
2018-10-01T12:50:29.858Z,10.57
2018-10-01T12:51:29.751Z,10.57
2018-10-01T12:52:29.688Z,10.56
2018-10-01T12:53:29.659Z,10.60
2018-10-01T12:54:29.578Z,10.65
2018-10-01T12:55:29.533Z,10.64
2018-10-01T12:56:29.479Z,10.71
2018-10-01T12:57:29.480Z,10.71
2018-10-01T12:58:29.396Z,10.68
2018-10-01T12:59:29.421Z,10.71
2018-10-01T13:00:29.268Z,10.67
2018-10-01T13:01:29.233Z,10.75
2018-10-01T13:02:29.163Z,10.75
2018-10-01T13:03:29.139Z,10.79
2018-10-01T13:04:29.062Z,10.83
2018-10-01T13:05:29.009Z,10.86
2018-10-01T13:06:29.038Z,10.83
2018-10-01T13:07:28.904Z,10.83
2018-10-01T13:08:28.878Z,10.92